createdAt,value
2017-11-30T00:00:27.323Z,51.27
2017-11-30T00:02:55.559Z,58.40
2017-11-30T00:05:23.811Z,55.97
2017-11-30T00:07:52.043Z,37.17
2017-11-30T00:10:20.263Z,46.90
2017-11-30T00:12:49.269Z,61.70
2017-11-30T00:15:17.504Z,32.60
2017-11-30T00:17:45.756Z,33.50
2017-11-30T00:20:14.287Z,37.57
2017-11-30T00:22:42.531Z,46.87
2017-11-30T00:25:10.801Z,51.93
2017-11-30T00:27:39.836Z,51.83
2017-11-30T00:30:08.049Z,49.50
2017-11-30T00:32:36.284Z,48.77
2017-11-30T00:35:04.515Z,55.60
2017-11-30T00:37:32.772Z,51.73
2017-11-30T00:40:00.983Z,52.80
2017-11-30T00:42:41.777Z,51.10
2017-11-30T00:45:10.028Z,50.73
2017-11-30T00:47:38.311Z,36.30
2017-11-30T00:50:07.309Z,31.00
2017-11-30T00:52:35.595Z,56.00
2017-11-30T00:55:03.854Z,39.63
2017-11-30T00:57:32.132Z,38.27
2017-11-30T01:00:00.390Z,39.70
2017-11-30T01:02:29.402Z,50.77
2017-11-30T01:04:58.404Z,64.27
2017-11-30T01:07:26.985Z,49.20
2017-11-30T01:09:56.000Z,44.60
2017-11-30T01:12:24.228Z,51.80
2017-11-30T01:14:53.361Z,54.63
2017-11-30T01:17:21.596Z,50.97
2017-11-30T01:19:49.830Z,50.20
2017-11-30T01:22:18.086Z,59.57
2017-11-30T01:24:46.345Z,62.97
2017-11-30T01:27:15.441Z,57.83
2017-11-30T01:29:43.740Z,63.23
2017-11-30T01:32:12.012Z,58.67
2017-11-30T01:34:40.283Z,60.50
2017-11-30T01:37:08.569Z,57.43
2017-11-30T01:39:36.805Z,44.70
2017-11-30T01:42:05.066Z,52.97
2017-11-30T01:44:33.313Z,51.80
2017-11-30T01:47:01.568Z,51.60
2017-11-30T01:49:29.839Z,56.00
2017-11-30T01:51:58.061Z,52.40
2017-11-30T01:54:26.291Z,56.73
2017-11-30T01:56:54.521Z,55.53
2017-11-30T01:59:22.732Z,61.40
2017-11-30T02:01:50.972Z,61.97
2017-11-30T02:04:19.191Z,67.47
2017-11-30T02:06:47.449Z,60.67
2017-11-30T02:09:15.748Z,56.77
2017-11-30T02:11:43.982Z,80.53
2017-11-30T02:14:12.255Z,69.83
2017-11-30T02:16:40.509Z,63.93
2017-11-30T02:19:08.842Z,59.03
2017-11-30T02:21:37.063Z,58.97
2017-11-30T02:24:05.299Z,69.20
2017-11-30T02:26:33.540Z,58.47
2017-11-30T02:29:02.537Z,93.30
2017-11-30T02:31:30.785Z,59.90
2017-11-30T02:33:59.094Z,55.23
2017-11-30T02:36:27.322Z,61.93
2017-11-30T02:38:55.553Z,54.60
2017-11-30T02:41:23.785Z,64.27
2017-11-30T02:43:52.016Z,57.00
2017-11-30T02:46:20.263Z,54.67
2017-11-30T02:48:49.275Z,52.10
2017-11-30T02:51:17.651Z,41.70
2017-11-30T02:53:45.880Z,49.97
2017-11-30T02:56:14.103Z,50.37
2017-11-30T02:58:42.391Z,56.43
2017-11-30T03:01:10.611Z,51.93
2017-11-30T03:03:38.937Z,52.17
2017-11-30T03:06:07.172Z,52.53
2017-11-30T03:08:36.284Z,49.87
2017-11-30T03:11:04.518Z,52.43
2017-11-30T03:13:32.745Z,51.23
2017-11-30T03:16:00.961Z,55.23
2017-11-30T03:18:30.030Z,58.00
2017-11-30T03:20:58.250Z,39.03
2017-11-30T03:23:27.241Z,53.17
2017-11-30T03:25:55.479Z,38.73
2017-11-30T03:28:23.704Z,41.23
2017-11-30T03:30:52.713Z,51.27
2017-11-30T03:33:21.001Z,41.60
2017-11-30T03:35:49.232Z,40.87
2017-11-30T03:38:17.453Z,68.93
2017-11-30T03:40:45.725Z,58.77
2017-11-30T03:43:13.944Z,47.37
2017-11-30T03:45:42.266Z,59.90
2017-11-30T03:48:11.265Z,40.63
2017-11-30T03:50:39.488Z,68.87
2017-11-30T03:53:07.868Z,41.83
2017-11-30T03:55:36.135Z,55.50
2017-11-30T03:58:04.618Z,71.57
2017-11-30T04:00:32.947Z,71.30
2017-11-30T04:03:01.195Z,93.60
2017-11-30T04:05:30.197Z,77.13
2017-11-30T04:07:59.188Z,72.57
2017-11-30T04:10:28.182Z,70.97
2017-11-30T04:12:56.387Z,68.57
2017-11-30T04:15:24.663Z,76.90
2017-11-30T04:17:53.733Z,73.07
2017-11-30T04:20:22.821Z,87.03
2017-11-30T04:22:51.000Z,78.00
2017-11-30T04:25:20.012Z,68.30
2017-11-30T04:27:48.288Z,70.93
2017-11-30T04:30:16.555Z,66.73
2017-11-30T04:32:44.813Z,67.00
2017-11-30T04:35:13.800Z,69.33
2017-11-30T04:37:42.801Z,74.47
2017-11-30T04:40:11.795Z,68.97
2017-11-30T04:42:40.795Z,69.60
2017-11-30T04:45:09.011Z,67.40
2017-11-30T04:47:37.229Z,68.47
2017-11-30T04:50:06.216Z,64.30
2017-11-30T04:52:35.236Z,66.70
2017-11-30T04:55:04.228Z,66.97
2017-11-30T04:57:32.508Z,70.27
2017-11-30T05:00:00.732Z,79.77
2017-11-30T05:02:29.060Z,68.73
2017-11-30T05:04:57.328Z,71.87
2017-11-30T05:07:26.436Z,81.47
2017-11-30T05:09:54.704Z,83.27
2017-11-30T05:12:22.975Z,70.20
2017-11-30T05:14:51.215Z,69.33
2017-11-30T05:17:19.423Z,77.77
2017-11-30T05:19:47.700Z,73.00
2017-11-30T05:22:16.675Z,72.97
2017-11-30T05:24:45.699Z,69.37
2017-11-30T05:27:13.963Z,79.43
2017-11-30T05:29:42.957Z,71.30
2017-11-30T05:32:11.196Z,82.93
2017-11-30T05:34:39.399Z,64.13
2017-11-30T05:37:07.627Z,68.83
2017-11-30T05:39:35.843Z,72.80
2017-11-30T05:42:04.081Z,75.30
2017-11-30T05:44:33.118Z,69.73
2017-11-30T05:47:01.340Z,69.20
2017-11-30T05:49:29.561Z,65.50
2017-11-30T05:51:58.564Z,85.37
2017-11-30T05:54:26.789Z,88.63
2017-11-30T05:56:54.998Z,99.93
2017-11-30T05:59:24.070Z,73.93
2017-11-30T06:01:52.480Z,64.43
2017-11-30T06:04:20.733Z,87.00
2017-11-30T06:06:49.032Z,74.03
2017-11-30T06:09:17.256Z,66.00
2017-11-30T06:14:53.984Z,67.83
2017-11-30T06:17:22.974Z,70.10
2017-11-30T06:19:51.269Z,74.73
2017-11-30T06:22:19.595Z,62.40
2017-11-30T06:24:48.617Z,74.73
2017-11-30T06:27:17.608Z,67.60
2017-11-30T06:29:45.877Z,63.67
2017-11-30T06:32:14.900Z,67.90
2017-11-30T06:34:43.157Z,71.73
2017-11-30T06:40:10.731Z,59.93
2017-11-30T06:42:39.744Z,60.87
2017-11-30T06:45:07.951Z,69.03
2017-11-30T06:47:36.275Z,73.37
2017-11-30T06:50:04.466Z,60.73
2017-11-30T06:52:33.614Z,65.10
2017-11-30T06:55:01.824Z,55.20
2017-11-30T06:57:30.056Z,60.40
2017-11-30T06:59:58.287Z,61.53
2017-11-30T07:02:26.536Z,67.67
2017-11-30T07:04:54.798Z,60.70
2017-11-30T07:07:23.016Z,60.70
2017-11-30T07:09:51.328Z,65.70
2017-11-30T07:12:20.459Z,71.23
2017-11-30T07:14:49.471Z,70.13
2017-11-30T07:17:18.464Z,70.20
2017-11-30T07:19:47.456Z,67.40
2017-11-30T07:22:15.679Z,67.47
2017-11-30T07:24:43.911Z,61.87
2017-11-30T07:27:13.104Z,61.10
2017-11-30T07:29:41.336Z,66.17
2017-11-30T07:32:09.572Z,63.17
2017-11-30T07:34:37.780Z,67.80
2017-11-30T07:37:06.009Z,68.90
2017-11-30T07:39:34.253Z,63.27
2017-11-30T07:42:02.472Z,66.03
2017-11-30T07:44:30.727Z,59.93
2017-11-30T07:46:59.316Z,58.97
2017-11-30T07:49:27.545Z,64.27
2017-11-30T07:51:55.775Z,63.10
2017-11-30T07:54:24.013Z,49.10
2017-11-30T07:56:52.259Z,53.30
2017-11-30T07:59:20.503Z,46.07
2017-11-30T08:01:48.712Z,54.83
2017-11-30T08:04:16.951Z,57.00
2017-11-30T08:06:45.172Z,54.40
2017-11-30T08:09:13.478Z,57.43
2017-11-30T08:11:41.719Z,68.13
2017-11-30T08:14:09.962Z,63.37
2017-11-30T08:16:38.181Z,64.20
2017-11-30T08:19:07.187Z,63.43
2017-11-30T08:21:36.202Z,69.03
2017-11-30T08:24:04.427Z,69.47
2017-11-30T08:26:32.710Z,66.80
2017-11-30T08:29:00.896Z,64.43
2017-11-30T08:31:29.149Z,61.53
2017-11-30T08:33:57.390Z,60.30
2017-11-30T08:36:25.609Z,66.40
2017-11-30T08:38:53.830Z,58.17
2017-11-30T08:41:22.060Z,59.13
2017-11-30T08:43:50.275Z,68.57
2017-11-30T08:46:19.183Z,69.80
2017-11-30T08:48:48.157Z,70.03
2017-11-30T08:51:17.242Z,65.67
2017-11-30T08:53:45.465Z,75.30
2017-11-30T08:56:13.690Z,59.70
2017-11-30T08:58:41.945Z,58.33
2017-11-30T09:01:10.940Z,60.40
2017-11-30T09:03:39.969Z,58.87
2017-11-30T09:06:08.184Z,58.00
2017-11-30T09:08:36.425Z,63.03
2017-11-30T09:11:04.668Z,63.90
2017-11-30T09:13:32.894Z,65.07
2017-11-30T09:16:01.125Z,51.57
2017-11-30T09:18:29.706Z,47.50
2017-11-30T09:20:58.676Z,51.70
2017-11-30T09:23:26.872Z,53.33
2017-11-30T09:25:55.116Z,53.57
2017-11-30T09:28:24.111Z,26.87
2017-11-30T09:30:53.120Z,24.60
2017-11-30T09:33:21.361Z,31.40
2017-11-30T09:35:49.674Z,26.43
2017-11-30T09:38:18.655Z,25.50
2017-11-30T09:40:47.652Z,24.47
2017-11-30T09:43:15.890Z,23.90
2017-11-30T09:45:44.115Z,74.37
2017-11-30T09:48:12.358Z,40.60
2017-11-30T09:50:41.375Z,29.33
2017-11-30T09:53:09.606Z,37.07
2017-11-30T09:55:37.871Z,25.47
2017-11-30T09:58:06.156Z,48.47
2017-11-30T10:00:34.368Z,27.63
2017-11-30T10:03:03.375Z,39.00
2017-11-30T10:05:31.592Z,34.80
2017-11-30T10:07:59.868Z,49.10
2017-11-30T10:10:28.075Z,37.30
2017-11-30T10:12:57.068Z,41.80
2017-11-30T10:15:25.375Z,40.20
2017-11-30T10:17:54.341Z,113.43
2017-11-30T10:20:22.588Z,39.00
2017-11-30T10:22:50.832Z,46.27
2017-11-30T10:25:19.082Z,44.73
2017-11-30T10:27:47.320Z,25.20
2017-11-30T10:30:15.561Z,40.50
2017-11-30T10:32:43.793Z,36.47
2017-11-30T10:35:12.859Z,37.70
2017-11-30T10:37:41.898Z,28.27
2017-11-30T10:40:10.133Z,42.50
2017-11-30T10:42:38.464Z,48.33
2017-11-30T10:45:06.677Z,47.70
2017-11-30T10:47:34.928Z,43.83
2017-11-30T10:50:03.175Z,39.73
2017-11-30T10:52:31.431Z,48.23
2017-11-30T10:55:00.452Z,37.23
2017-11-30T10:57:29.460Z,43.43
2017-11-30T10:59:57.682Z,50.30
2017-11-30T11:02:25.915Z,60.63
2017-11-30T11:04:54.220Z,26.87
2017-11-30T11:07:23.249Z,41.27
2017-11-30T11:09:51.476Z,50.40
2017-11-30T11:12:21.060Z,57.07
2017-11-30T11:14:49.444Z,64.43
2017-11-30T11:17:17.696Z,50.53
2017-11-30T11:19:46.111Z,46.97
2017-11-30T11:22:14.330Z,50.87
2017-11-30T11:24:42.636Z,57.90
2017-11-30T11:27:10.842Z,37.80
2017-11-30T11:29:39.882Z,48.87
2017-11-30T11:32:08.128Z,50.23
2017-11-30T11:34:36.406Z,52.90
2017-11-30T11:37:04.644Z,47.30
2017-11-30T11:39:32.951Z,47.97
2017-11-30T11:42:10.916Z,46.40
2017-11-30T11:44:39.125Z,39.37
2017-11-30T11:47:07.359Z,58.30
2017-11-30T11:49:35.589Z,39.57
2017-11-30T11:52:04.596Z,42.83
2017-11-30T11:54:32.844Z,43.03
2017-11-30T11:57:01.060Z,37.47
2017-11-30T11:59:29.291Z,40.53
2017-11-30T12:01:57.512Z,42.43
2017-11-30T12:04:25.809Z,45.57
2017-11-30T12:06:54.044Z,45.10
2017-11-30T12:09:23.068Z,40.77
2017-11-30T12:11:51.405Z,39.23
2017-11-30T12:14:20.390Z,36.17
2017-11-30T12:16:48.626Z,34.20
2017-11-30T12:19:16.872Z,37.07
2017-11-30T12:21:45.159Z,41.33
2017-11-30T12:24:13.408Z,37.40
2017-11-30T12:26:41.627Z,38.30
2017-11-30T12:29:09.876Z,34.20
2017-11-30T12:31:38.119Z,37.43
2017-11-30T12:34:06.393Z,43.63
2017-11-30T12:36:34.643Z,51.17
2017-11-30T12:39:02.848Z,40.97
2017-11-30T12:41:31.045Z,31.50
2017-11-30T12:43:59.338Z,29.47
2017-11-30T12:46:27.545Z,38.20
2017-11-30T12:48:55.760Z,43.30
2017-11-30T12:51:24.003Z,44.73
2017-11-30T12:53:52.239Z,38.90
2017-11-30T12:56:20.501Z,43.00
2017-11-30T12:58:48.779Z,36.37
2017-11-30T13:01:17.003Z,53.80
2017-11-30T13:03:46.014Z,52.30
2017-11-30T13:06:15.037Z,47.97
2017-11-30T13:08:43.250Z,54.57
2017-11-30T13:11:11.482Z,49.87
2017-11-30T13:13:39.762Z,49.90
2017-11-30T13:16:07.960Z,45.70
2017-11-30T13:18:36.474Z,41.47
2017-11-30T13:21:04.698Z,37.57
2017-11-30T13:23:32.973Z,37.13
2017-11-30T13:26:01.169Z,41.70
2017-11-30T13:28:30.603Z,41.83
2017-11-30T13:30:59.601Z,38.43
2017-11-30T13:33:27.853Z,37.80
2017-11-30T13:35:56.105Z,39.87
2017-11-30T13:38:24.343Z,42.10
2017-11-30T13:40:52.571Z,31.60
2017-11-30T13:43:21.595Z,35.20
2017-11-30T13:45:50.662Z,38.37
2017-11-30T13:48:19.663Z,44.40
2017-11-30T13:50:48.682Z,35.27
2017-11-30T13:53:16.976Z,36.20
2017-11-30T13:55:45.167Z,42.27
2017-11-30T13:58:21.143Z,42.00
2017-11-30T14:00:49.500Z,37.53
2017-11-30T14:03:17.755Z,44.43
2017-11-30T14:05:45.989Z,40.30
2017-11-30T14:08:14.262Z,46.83
2017-11-30T14:10:42.482Z,45.00
2017-11-30T14:13:10.728Z,45.13
2017-11-30T14:15:39.715Z,46.17
2017-11-30T14:18:07.936Z,51.67
2017-11-30T14:20:36.204Z,39.57
2017-11-30T14:23:04.521Z,40.90
2017-11-30T14:25:32.766Z,44.87
2017-11-30T14:28:01.005Z,41.30
2017-11-30T14:30:29.255Z,40.13
2017-11-30T14:32:57.463Z,54.80
2017-11-30T14:35:26.436Z,42.63
2017-11-30T14:37:55.467Z,52.87
2017-11-30T14:40:23.838Z,45.23
2017-11-30T14:42:52.080Z,46.57
2017-11-30T14:45:21.139Z,43.93
2017-11-30T14:47:50.171Z,38.23
2017-11-30T14:50:18.366Z,36.30
2017-11-30T14:52:46.603Z,44.20
2017-11-30T14:55:16.278Z,32.30
2017-11-30T14:57:44.619Z,41.17
2017-11-30T15:00:12.804Z,44.40
2017-11-30T15:02:41.074Z,45.13
2017-11-30T15:05:09.374Z,45.37
2017-11-30T15:07:37.572Z,33.83
2017-11-30T15:10:06.620Z,38.93
2017-11-30T15:12:34.871Z,38.07
2017-11-30T15:15:04.174Z,42.47
2017-11-30T15:17:32.398Z,56.07
2017-11-30T15:20:00.641Z,63.27
2017-11-30T15:22:28.882Z,19.93
2017-11-30T15:24:57.873Z,44.87
2017-11-30T15:27:26.914Z,32.67
2017-11-30T15:29:55.197Z,21.67
2017-11-30T15:32:24.286Z,26.70
2017-11-30T15:34:52.527Z,33.23
2017-11-30T15:37:21.512Z,34.13
2017-11-30T15:39:49.759Z,37.17
2017-11-30T15:42:18.012Z,39.37
2017-11-30T15:44:46.246Z,44.90
2017-11-30T15:47:14.504Z,39.23
2017-11-30T15:49:43.588Z,43.00
2017-11-30T15:52:11.874Z,33.40
2017-11-30T15:54:40.119Z,34.53
2017-11-30T15:57:08.400Z,34.47
2017-11-30T15:59:36.631Z,42.97
2017-11-30T16:02:04.865Z,36.53
2017-11-30T16:04:33.146Z,43.67
2017-11-30T16:07:01.388Z,50.23
2017-11-30T16:09:29.636Z,50.93
2017-11-30T16:11:57.882Z,55.20
2017-11-30T16:14:26.858Z,49.97
2017-11-30T16:16:56.195Z,57.13
2017-11-30T16:19:26.061Z,44.80
2017-11-30T16:21:55.364Z,39.43
2017-11-30T16:24:23.610Z,21.33
2017-11-30T16:26:51.866Z,22.83
2017-11-30T16:29:20.671Z,22.43
2017-11-30T16:31:48.890Z,47.73
2017-11-30T16:34:17.124Z,33.33
2017-11-30T16:36:45.356Z,20.93
2017-11-30T16:39:14.365Z,20.77
2017-11-30T16:41:42.642Z,47.57
2017-11-30T16:44:11.637Z,47.47
2017-11-30T16:46:39.887Z,46.97
2017-11-30T16:49:08.888Z,48.60
2017-11-30T16:51:37.137Z,42.53
2017-11-30T16:54:05.382Z,45.37
2017-11-30T16:56:33.649Z,46.60
2017-11-30T16:59:01.900Z,51.43
2017-11-30T17:01:30.158Z,48.17
2017-11-30T17:03:59.151Z,23.37
2017-11-30T17:06:27.448Z,27.67
2017-11-30T17:08:55.694Z,25.37
2017-11-30T17:11:23.996Z,23.93
2017-11-30T17:13:52.246Z,22.77
2017-11-30T17:16:21.240Z,27.57
2017-11-30T17:18:49.469Z,23.53
2017-11-30T17:21:17.773Z,24.93
2017-11-30T17:23:46.024Z,27.67
2017-11-30T17:26:14.333Z,24.77
2017-11-30T17:28:42.609Z,27.27
2017-11-30T17:31:10.856Z,25.47
2017-11-30T17:33:39.139Z,21.93
2017-11-30T17:36:07.368Z,36.20
2017-11-30T17:38:35.621Z,26.00
2017-11-30T17:41:03.884Z,30.43
2017-11-30T17:43:32.193Z,28.90
2017-11-30T17:46:00.438Z,27.43
2017-11-30T17:48:28.687Z,30.80
2017-11-30T17:50:56.945Z,31.13
2017-11-30T17:53:25.176Z,29.97
2017-11-30T17:55:54.182Z,32.17
2017-11-30T17:58:22.411Z,32.37
2017-11-30T18:00:51.470Z,28.07
2017-11-30T18:03:19.735Z,26.50
2017-11-30T18:05:47.981Z,26.47
2017-11-30T18:08:16.988Z,26.47
2017-11-30T18:10:45.240Z,32.57
2017-11-30T18:13:13.515Z,26.37
2017-11-30T18:15:41.769Z,26.37
2017-11-30T18:18:10.005Z,24.03
2017-11-30T18:20:38.263Z,23.90
2017-11-30T18:23:06.516Z,27.80
2017-11-30T18:25:34.793Z,25.20
2017-11-30T18:28:03.830Z,27.17
2017-11-30T18:30:33.202Z,25.10
2017-11-30T18:33:02.208Z,26.90
2017-11-30T18:35:32.243Z,23.83
2017-11-30T18:38:00.489Z,27.47
2017-11-30T18:40:29.498Z,23.50
2017-11-30T18:42:57.753Z,23.87
2017-11-30T18:45:26.004Z,27.30
2017-11-30T18:47:54.339Z,27.13
2017-11-30T18:50:23.487Z,28.27
2017-11-30T18:52:52.548Z,26.27
2017-11-30T18:55:21.207Z,26.17
2017-11-30T18:57:49.554Z,28.33
2017-11-30T19:00:18.538Z,28.07
2017-11-30T19:02:46.766Z,28.73
2017-11-30T19:05:16.025Z,27.80
2017-11-30T19:07:44.500Z,34.20
2017-11-30T19:10:13.495Z,28.50
2017-11-30T19:12:42.489Z,27.93
2017-11-30T19:15:11.496Z,28.23
2017-11-30T19:17:39.758Z,26.33
2017-11-30T19:20:08.013Z,27.23
2017-11-30T19:22:37.063Z,26.37
2017-11-30T19:25:05.290Z,35.53
2017-11-30T19:27:33.534Z,28.47
2017-11-30T19:30:02.578Z,29.60
2017-11-30T19:32:30.811Z,29.80
2017-11-30T19:34:59.052Z,23.27
2017-11-30T19:37:27.274Z,31.90
2017-11-30T19:39:56.299Z,38.97
2017-11-30T19:42:24.549Z,35.17
2017-11-30T19:44:52.866Z,30.53
2017-11-30T19:47:21.100Z,32.87
2017-11-30T19:49:49.326Z,24.50
2017-11-30T19:52:17.588Z,43.70
2017-11-30T19:54:45.841Z,27.07
2017-11-30T19:57:14.082Z,26.40
2017-11-30T19:59:42.295Z,24.10
2017-11-30T20:02:11.295Z,34.27
2017-11-30T20:04:39.530Z,26.17
2017-11-30T20:07:07.745Z,22.40
2017-11-30T20:09:36.005Z,24.87
2017-11-30T20:12:04.284Z,28.03
2017-11-30T20:14:33.353Z,24.97
2017-11-30T20:17:01.592Z,22.90
2017-11-30T20:19:29.830Z,27.27
2017-11-30T20:21:58.100Z,23.50
2017-11-30T20:24:27.126Z,25.70
2017-11-30T20:26:55.493Z,28.37
2017-11-30T20:29:23.730Z,28.67
2017-11-30T20:31:52.074Z,25.77
2017-11-30T20:34:20.282Z,24.93
2017-11-30T20:36:49.288Z,27.27
2017-11-30T20:39:17.614Z,29.70
2017-11-30T20:41:45.872Z,31.00
2017-11-30T20:44:14.316Z,29.73
2017-11-30T20:46:42.651Z,30.10
2017-11-30T20:49:11.593Z,30.47
2017-11-30T20:51:39.848Z,44.90
2017-11-30T20:54:08.173Z,33.77
2017-11-30T20:56:36.484Z,56.30
2017-11-30T20:59:04.946Z,27.70
2017-11-30T21:01:33.159Z,27.40
2017-11-30T21:04:02.176Z,29.73
2017-11-30T21:06:31.165Z,50.37
2017-11-30T21:09:00.261Z,23.70
2017-11-30T21:11:28.498Z,27.03
2017-11-30T21:13:56.802Z,27.77
2017-11-30T21:16:25.792Z,28.87
2017-11-30T21:18:54.313Z,31.70
2017-11-30T21:21:22.563Z,29.97
2017-11-30T21:23:50.815Z,27.47
2017-11-30T21:26:19.119Z,30.73
2017-11-30T21:28:47.454Z,34.63
2017-11-30T21:31:15.690Z,31.50
2017-11-30T21:33:44.087Z,30.03
2017-11-30T21:36:12.330Z,30.90
2017-11-30T21:38:40.547Z,30.40
2017-11-30T21:41:08.836Z,26.60
2017-11-30T21:43:37.851Z,29.47
2017-11-30T21:46:06.132Z,29.70
2017-11-30T21:48:35.122Z,33.10
2017-11-30T21:51:04.136Z,32.40
2017-11-30T21:53:32.378Z,35.03
2017-11-30T21:56:00.618Z,35.17
2017-11-30T21:58:28.874Z,34.37
2017-11-30T22:00:57.280Z,43.87
2017-11-30T22:03:25.499Z,30.27
2017-11-30T22:05:53.753Z,29.37
2017-11-30T22:08:21.985Z,33.90
2017-11-30T22:10:50.192Z,40.20
2017-11-30T22:13:18.413Z,34.40
2017-11-30T22:15:46.682Z,33.00
2017-11-30T22:18:14.972Z,31.33
2017-11-30T22:20:43.227Z,33.93
2017-11-30T22:23:12.326Z,40.97
2017-11-30T22:25:40.564Z,36.90
2017-11-30T22:28:09.570Z,53.93
2017-11-30T22:30:38.595Z,38.57
2017-11-30T22:33:06.813Z,34.70
2017-11-30T22:35:35.840Z,35.90
2017-11-30T22:38:04.162Z,39.80
2017-11-30T22:40:32.409Z,38.13
2017-11-30T22:43:00.681Z,39.67
2017-11-30T22:45:28.906Z,40.70
2017-11-30T22:47:57.146Z,39.10
2017-11-30T22:50:25.413Z,38.20
2017-11-30T22:52:53.721Z,38.53
2017-11-30T22:55:21.968Z,37.90
2017-11-30T22:57:50.527Z,38.57
2017-11-30T23:00:18.713Z,40.40
2017-11-30T23:02:46.973Z,43.60
2017-11-30T23:05:15.242Z,58.80
2017-11-30T23:07:43.495Z,41.00
2017-11-30T23:10:11.996Z,40.33
2017-11-30T23:12:41.013Z,43.20
2017-11-30T23:15:09.225Z,37.93
2017-11-30T23:17:37.497Z,39.63
2017-11-30T23:20:05.707Z,41.00
2017-11-30T23:22:34.698Z,41.53
2017-11-30T23:25:03.710Z,36.90
2017-11-30T23:27:31.947Z,44.60
2017-11-30T23:30:00.222Z,38.57
2017-11-30T23:32:29.238Z,37.13
2017-11-30T23:34:57.466Z,40.33
2017-11-30T23:37:25.707Z,38.80
2017-11-30T23:39:54.687Z,42.27
2017-11-30T23:42:22.952Z,59.30
2017-11-30T23:44:51.154Z,43.83
2017-11-30T23:47:19.384Z,40.47
2017-11-30T23:49:47.635Z,40.67
2017-11-30T23:52:15.863Z,40.30
2017-11-30T23:54:44.119Z,36.90
2017-11-30T23:57:12.382Z,36.00
2017-11-30T23:59:40.602Z,39.27
